Time;durP1;ratioP1;P1;durP2;ratioP2;P2;SDS_P1;SDS_P2;PMS_P1;PMS_P2;Temp;Humidity;BMP_temperature;BMP_pressure;BME280_temperature;BME280_humidity;BME280_pressure;Samples;Min_cycle;Max_cycle;Signal;HPM_P1;HPM_P2
2022/09/06 00:00:48;;;;;;;;;;;18.80;99.90;;;;;;5078212;28;20326;-77
2022/09/06 00:03:15;;;;;;;;;;;18.80;99.90;;;;;;5096274;28;19911;-75
2022/09/06 00:05:42;;;;;;;;;;;18.60;99.90;;;;;;5096326;28;19957;-75
2022/09/06 00:08:08;;;;;;;;;;;18.60;99.90;;;;;;5096098;28;20391;-80
2022/09/06 00:10:33;;;;;;;;;;;18.50;99.90;;;;;;5096162;28;19908;-78
2022/09/06 00:13:01;;;;;;;;;;;18.50;99.90;;;;;;5096315;28;19939;-77
2022/09/06 00:15:26;;;;;;;;;;;18.50;99.90;;;;;;5096028;28;19908;-77
2022/09/06 00:17:52;;;;;;;;;;;18.50;99.90;;;;;;5096004;28;19954;-77
2022/09/06 00:20:17;;;;;;;;;;;18.50;99.90;;;;;;5095091;28;20014;-78
2022/09/06 00:22:43;;;;;;;;;;;18.50;99.90;;;;;;5095743;28;19913;-78
2022/09/06 00:25:09;;;;;;;;;;;18.40;99.90;;;;;;5096081;28;19999;-80
2022/09/06 00:27:34;;;;;;;;;;;18.30;99.90;;;;;;5096026;28;19934;-78
2022/09/06 00:30:00;;;;;;;;;;;18.30;99.90;;;;;;5095793;28;19958;-78
2022/09/06 00:32:26;;;;;;;;;;;18.40;99.90;;;;;;5095776;28;20287;-76
2022/09/06 00:34:51;;;;;;;;;;;18.40;99.90;;;;;;5077545;28;19950;-77
2022/09/06 00:37:17;;;;;;;;;;;18.50;99.90;;;;;;5095674;28;19962;-78
2022/09/06 00:39:43;;;;;;;;;;;18.60;99.90;;;;;;5095789;28;19908;-74
2022/09/06 00:42:09;;;;;;;;;;;18.70;99.90;;;;;;5095543;28;20318;-73
2022/09/06 00:44:35;;;;;;;;;;;18.70;99.90;;;;;;5095246;28;19999;-76
2022/09/06 00:47:01;;;;;;;;;;;18.70;99.90;;;;;;5095768;28;20009;-80
2022/09/06 00:49:28;;;;;;;;;;;18.70;99.90;;;;;;5095495;28;19981;-75
2022/09/06 00:51:55;;;;;;;;;;;18.70;99.90;;;;;;5095367;28;19912;-75
2022/09/06 00:54:21;;;;;;;;;;;18.60;99.90;;;;;;5095383;28;20322;-76
2022/09/06 00:56:47;;;;;;;;;;;18.70;99.90;;;;;;5095871;28;19912;-79
2022/09/06 00:59:13;;;;;;;;;;;18.70;99.90;;;;;;5095273;28;19908;-76
2022/09/06 01:01:38;;;;;;;;;;;18.70;99.90;;;;;;5094929;28;19954;-77
2022/09/06 01:04:04;;;;;;;;;;;18.80;99.90;;;;;;5095122;28;19961;-76
2022/09/06 01:06:36;;;;;;;;;;;18.70;99.90;;;;;;5095050;28;19908;-76
2022/09/06 01:09:17;;;;;;;;;;;18.70;99.90;;;;;;5095067;28;19958;-77
2022/09/06 01:12:12;;;;;;;;;;;18.60;99.90;;;;;;5094993;28;19908;-79
2022/09/06 01:14:37;;;;;;;;;;;18.70;99.90;;;;;;5022974;28;19913;-74
2022/09/06 01:17:16;;;;;;;;;;;18.60;99.90;;;;;;5095152;28;19915;-77
2022/09/06 01:19:55;;;;;;;;;;;18.60;99.90;;;;;;5094873;28;20279;-79
2022/09/06 01:22:29;;;;;;;;;;;18.70;99.90;;;;;;5094753;28;20273;-76
2022/09/06 01:24:59;;;;;;;;;;;18.50;99.90;;;;;;5094736;28;19908;-80
2022/09/06 01:27:51;;;;;;;;;;;18.60;99.90;;;;;;5094782;28;19908;-80
2022/09/06 01:30:18;;;;;;;;;;;18.50;99.90;;;;;;5063306;28;19958;-76
2022/09/06 01:32:43;;;;;;;;;;;18.50;99.90;;;;;;5094410;28;19908;-77
2022/09/06 01:35:09;;;;;;;;;;;18.50;99.90;;;;;;5094616;28;20265;-77
2022/09/06 01:37:35;;;;;;;;;;;18.60;99.90;;;;;;5094520;28;19973;-80
2022/09/06 01:40:00;;;;;;;;;;;18.50;99.90;;;;;;5094490;28;19912;-78
2022/09/06 01:42:28;;;;;;;;;;;18.40;99.90;;;;;;5094747;28;19908;-80
2022/09/06 01:44:58;;;;;;;;;;;18.40;99.90;;;;;;5094089;28;19955;-81
2022/09/06 01:47:39;;;;;;;;;;;18.40;99.90;;;;;;5094340;28;19908;-76
2022/09/06 01:50:26;;;;;;;;;;;18.40;99.90;;;;;;5094472;28;19969;-76
2022/09/06 01:53:16;;;;;;;;;;;18.40;99.90;;;;;;5094386;28;19908;-77
2022/09/06 01:55:41;;;;;;;;;;;18.30;99.90;;;;;;5094974;28;19908;-78
2022/09/06 01:58:22;;;;;;;;;;;18.40;99.90;;;;;;5094294;28;20284;-79
2022/09/06 02:00:57;;;;;;;;;;;18.40;99.90;;;;;;5094197;28;20292;-75
2022/09/06 02:03:36;;;;;;;;;;;18.40;99.90;;;;;;5094096;28;19958;-80
2022/09/06 02:06:05;;;;;;;;;;;18.40;99.90;;;;;;5094048;28;19912;-80
2022/09/06 02:08:50;;;;;;;;;;;18.30;99.90;;;;;;5093919;28;20368;-81
2022/09/06 02:11:16;;;;;;;;;;;18.30;99.90;;;;;;5093317;28;19915;-79
2022/09/06 02:13:51;;;;;;;;;;;18.20;99.90;;;;;;5094171;28;19908;-79
2022/09/06 02:16:20;;;;;;;;;;;18.20;99.90;;;;;;5094057;28;20379;-78
2022/09/06 02:18:51;;;;;;;;;;;18.30;99.90;;;;;;5094035;28;20425;-81
2022/09/06 02:21:18;;;;;;;;;;;18.20;99.90;;;;;;5075442;28;20288;-77
2022/09/06 02:23:45;;;;;;;;;;;18.20;99.90;;;;;;5093848;28;20386;-75
2022/09/06 02:26:17;;;;;;;;;;;18.20;99.90;;;;;;5093926;28;19931;-78
2022/09/06 02:28:42;;;;;;;;;;;18.20;99.90;;;;;;5093722;28;19919;-78
2022/09/06 02:31:34;;;;;;;;;;;18.20;99.90;;;;;;5093722;28;19908;-80
2022/09/06 02:34:00;;;;;;;;;;;18.20;99.90;;;;;;5089544;28;20280;-78
2022/09/06 02:36:26;;;;;;;;;;;18.20;99.90;;;;;;5093745;28;19908;-77
2022/09/06 02:38:53;;;;;;;;;;;18.20;99.90;;;;;;5093711;28;19908;-80
2022/09/06 02:41:21;;;;;;;;;;;18.10;99.90;;;;;;5093659;28;20330;-78
2022/09/06 02:43:47;;;;;;;;;;;18.00;99.90;;;;;;5094126;28;19912;-76
2022/09/06 02:46:12;;;;;;;;;;;18.10;99.90;;;;;;5097849;28;20376;-79
2022/09/06 02:48:38;;;;;;;;;;;18.10;99.90;;;;;;5097939;28;19922;-80
2022/09/06 02:51:04;;;;;;;;;;;18.10;99.90;;;;;;5098069;28;19915;-80
2022/09/06 02:53:30;;;;;;;;;;;18.00;99.90;;;;;;5097675;28;19935;-77
2022/09/06 02:55:56;;;;;;;;;;;18.10;99.90;;;;;;5098135;28;19912;-76
2022/09/06 02:58:21;;;;;;;;;;;18.10;99.90;;;;;;5097576;28;19951;-81
2022/09/06 03:00:48;;;;;;;;;;;18.20;99.90;;;;;;5097540;28;20437;-77
2022/09/06 03:03:14;;;;;;;;;;;18.10;99.90;;;;;;5097655;28;19961;-76
2022/09/06 03:05:40;;;;;;;;;;;18.10;99.90;;;;;;5097526;28;19989;-75
2022/09/06 03:08:05;;;;;;;;;;;18.00;99.90;;;;;;5097329;28;19974;-76
2022/09/06 03:10:31;;;;;;;;;;;18.10;99.90;;;;;;5097344;28;19908;-77
2022/09/06 03:12:57;;;;;;;;;;;18.10;99.90;;;;;;5097275;28;19947;-78
2022/09/06 03:15:22;;;;;;;;;;;18.10;99.90;;;;;;5097543;28;19908;-78
2022/09/06 03:17:48;;;;;;;;;;;18.10;99.90;;;;;;5097196;28;19930;-75
2022/09/06 03:20:14;;;;;;;;;;;18.10;99.90;;;;;;5097142;28;19923;-76
2022/09/06 03:22:39;;;;;;;;;;;18.10;99.90;;;;;;5097106;28;19908;-79
2022/09/06 03:25:06;;;;;;;;;;;18.20;99.90;;;;;;5097186;28;19957;-75
2022/09/06 03:27:32;;;;;;;;;;;18.20;99.90;;;;;;5096914;28;19915;-78
2022/09/06 03:29:57;;;;;;;;;;;18.20;99.90;;;;;;5096892;28;19928;-80
2022/09/06 03:32:23;;;;;;;;;;;18.20;99.90;;;;;;5096944;28;20296;-77
2022/09/06 03:34:48;;;;;;;;;;;18.30;99.90;;;;;;5096881;28;19912;-74
2022/09/06 03:37:14;;;;;;;;;;;18.30;99.90;;;;;;5096808;28;19915;-77
2022/09/06 03:39:40;;;;;;;;;;;18.30;99.90;;;;;;5096929;28;19908;-74
2022/09/06 03:42:06;;;;;;;;;;;18.30;99.90;;;;;;5078561;28;19913;-79
2022/09/06 03:44:31;;;;;;;;;;;18.30;99.90;;;;;;5096542;28;20014;-80
2022/09/06 03:46:57;;;;;;;;;;;18.30;99.90;;;;;;5096831;28;19944;-76
2022/09/06 03:49:23;;;;;;;;;;;18.30;99.90;;;;;;5096559;28;19916;-78
2022/09/06 03:51:48;;;;;;;;;;;18.30;99.90;;;;;;5096567;28;19957;-76
2022/09/06 03:54:14;;;;;;;;;;;18.30;99.90;;;;;;5096528;28;19914;-77
2022/09/06 03:56:39;;;;;;;;;;;18.30;99.90;;;;;;5097020;28;19914;-76
2022/09/06 03:59:05;;;;;;;;;;;18.30;99.90;;;;;;5096428;28;19931;-77
2022/09/06 04:01:31;;;;;;;;;;;18.30;99.90;;;;;;5096403;28;20276;-79
2022/09/06 04:03:56;;;;;;;;;;;18.30;99.90;;;;;;5096304;28;19908;-75
2022/09/06 04:06:22;;;;;;;;;;;18.20;99.90;;;;;;5096266;28;19930;-77
2022/09/06 04:08:47;;;;;;;;;;;18.20;99.90;;;;;;5096376;28;19965;-76
2022/09/06 04:11:13;;;;;;;;;;;18.20;99.90;;;;;;5096230;28;20383;-78
2022/09/06 04:13:38;;;;;;;;;;;18.20;99.90;;;;;;5077944;28;19908;-78
2022/09/06 04:16:04;;;;;;;;;;;18.30;99.90;;;;;;5096263;28;19908;-79
2022/09/06 04:18:30;;;;;;;;;;;18.30;99.90;;;;;;5096436;28;19914;-77
2022/09/06 04:20:56;;;;;;;;;;;18.20;99.90;;;;;;5095983;28;19908;-73
2022/09/06 04:23:22;;;;;;;;;;;18.30;99.90;;;;;;5096015;28;19908;-75
2022/09/06 04:25:48;;;;;;;;;;;18.30;99.90;;;;;;5077729;28;19912;-77
2022/09/06 04:28:15;;;;;;;;;;;18.30;99.90;;;;;;5095789;28;19918;-74
2022/09/06 04:30:40;;;;;;;;;;;18.40;99.90;;;;;;5095974;28;19933;-73
2022/09/06 04:33:06;;;;;;;;;;;18.40;99.90;;;;;;5095863;28;19908;-77
2022/09/06 04:35:32;;;;;;;;;;;18.50;99.90;;;;;;5095935;28;19931;-74
2022/09/06 04:38:01;;;;;;;;;;;18.50;99.90;;;;;;5095707;28;19913;-74
2022/09/06 04:40:26;;;;;;;;;;;18.60;99.90;;;;;;5095926;28;19931;-74
2022/09/06 04:42:52;;;;;;;;;;;18.60;99.90;;;;;;5095780;28;20353;-75
2022/09/06 04:45:18;;;;;;;;;;;18.60;99.90;;;;;;5095268;28;20325;-73
2022/09/06 04:47:43;;;;;;;;;;;18.60;99.90;;;;;;5095395;28;19916;-74
2022/09/06 04:50:09;;;;;;;;;;;18.60;99.90;;;;;;5095417;28;20318;-73
2022/09/06 04:52:35;;;;;;;;;;;18.60;99.90;;;;;;5077257;28;19909;-76
2022/09/06 04:55:00;;;;;;;;;;;18.60;99.90;;;;;;5095436;28;19908;-77
2022/09/06 04:57:26;;;;;;;;;;;18.60;99.90;;;;;;5096274;28;19915;-76
2022/09/06 04:59:51;;;;;;;;;;;18.60;99.90;;;;;;5095260;28;19908;-76
2022/09/06 05:02:17;;;;;;;;;;;18.50;99.90;;;;;;5095391;28;19912;-76
2022/09/06 05:04:42;;;;;;;;;;;18.50;99.90;;;;;;5095195;28;20329;-76
2022/09/06 05:07:08;;;;;;;;;;;18.50;99.90;;;;;;5094502;28;19947;-75
2022/09/06 05:09:34;;;;;;;;;;;18.50;99.90;;;;;;5095365;28;19913;-75
2022/09/06 05:12:00;;;;;;;;;;;18.50;99.90;;;;;;5095085;28;20385;-74
2022/09/06 05:14:26;;;;;;;;;;;18.50;99.90;;;;;;5094959;28;19954;-77
2022/09/06 05:16:53;;;;;;;;;;;18.50;99.90;;;;;;5094927;28;19908;-76
2022/09/06 05:19:18;;;;;;;;;;;18.50;99.90;;;;;;5076598;28;19955;-74
2022/09/06 05:21:44;;;;;;;;;;;18.50;99.90;;;;;;5094969;28;19908;-75
2022/09/06 05:24:10;;;;;;;;;;;18.60;99.90;;;;;;5094742;28;19908;-74
2022/09/06 05:26:36;;;;;;;;;;;18.60;99.90;;;;;;5094939;28;19915;-74
2022/09/06 05:29:01;;;;;;;;;;;18.50;99.90;;;;;;5094338;28;19995;-74
2022/09/06 05:31:31;;;;;;;;;;;18.50;99.90;;;;;;5094659;28;19923;-75
2022/09/06 05:33:57;;;;;;;;;;;18.60;99.90;;;;;;5094611;28;19931;-77
2022/09/06 05:36:23;;;;;;;;;;;18.60;99.90;;;;;;5094447;28;20368;-75
2022/09/06 05:38:49;;;;;;;;;;;18.60;99.90;;;;;;5094326;28;19909;-75
2022/09/06 05:41:15;;;;;;;;;;;18.60;99.90;;;;;;5094325;28;19909;-76
2022/09/06 05:43:40;;;;;;;;;;;18.60;99.90;;;;;;5094470;28;20315;-75
2022/09/06 05:46:07;;;;;;;;;;;18.70;99.90;;;;;;5093832;28;19965;-75
2022/09/06 05:48:32;;;;;;;;;;;18.70;99.90;;;;;;5076514;28;19969;-74
2022/09/06 05:51:02;;;;;;;;;;;18.80;99.90;;;;;;5094440;28;19912;-78
2022/09/06 05:53:38;;;;;;;;;;;18.70;99.90;;;;;;5094352;28;20368;-76
2022/09/06 05:56:04;;;;;;;;;;;18.80;99.90;;;;;;5076553;28;19908;-77
2022/09/06 05:58:29;;;;;;;;;;;18.90;99.90;;;;;;5094037;28;19908;-77
2022/09/06 06:01:05;;;;;;;;;;;18.80;99.90;;;;;;5094125;28;20360;-75
2022/09/06 06:03:30;;;;;;;;;;;18.70;99.90;;;;;;5094049;28;20012;-77
2022/09/06 06:05:56;;;;;;;;;;;18.70;99.90;;;;;;5094284;28;20360;-75
2022/09/06 06:08:21;;;;;;;;;;;18.60;99.90;;;;;;5093998;28;19912;-76
2022/09/06 06:10:47;;;;;;;;;;;18.60;99.90;;;;;;5094075;28;19912;-77
2022/09/06 06:13:13;;;;;;;;;;;18.60;99.90;;;;;;5093991;28;19908;-76
2022/09/06 06:15:38;;;;;;;;;;;18.60;99.90;;;;;;5094073;28;19944;-77
2022/09/06 06:18:04;;;;;;;;;;;18.60;99.90;;;;;;5093384;28;19912;-76
2022/09/06 06:20:29;;;;;;;;;;;18.60;99.90;;;;;;5093486;28;19911;-77
2022/09/06 06:22:55;;;;;;;;;;;18.60;99.90;;;;;;5093941;28;19936;-75
2022/09/06 06:25:24;;;;;;;;;;;18.70;99.90;;;;;;5093951;28;20017;-76
2022/09/06 06:27:53;;;;;;;;;;;18.60;99.90;;;;;;5093826;28;20330;-75
2022/09/06 06:30:19;;;;;;;;;;;18.70;99.90;;;;;;5093776;28;19914;-74
2022/09/06 06:32:44;;;;;;;;;;;18.80;99.90;;;;;;5094107;28;20265;-75
2022/09/06 06:35:10;;;;;;;;;;;18.90;99.90;;;;;;5093785;28;19957;-75
2022/09/06 06:37:36;;;;;;;;;;;19.00;99.90;;;;;;5093753;28;19931;-76
2022/09/06 06:40:02;;;;;;;;;;;19.20;99.90;;;;;;5093640;28;19922;-76
2022/09/06 06:42:27;;;;;;;;;;;19.30;99.90;;;;;;5093889;28;19912;-74
2022/09/06 06:44:53;;;;;;;;;;;19.20;99.90;;;;;;5093356;28;20439;-77
2022/09/06 06:47:19;;;;;;;;;;;19.20;99.90;;;;;;5093835;28;19916;-75
2022/09/06 06:49:44;;;;;;;;;;;19.20;99.90;;;;;;5093555;28;19955;-75
2022/09/06 06:52:10;;;;;;;;;;;19.30;99.90;;;;;;5093592;28;19908;-74
2022/09/06 06:54:36;;;;;;;;;;;19.30;99.90;;;;;;5093927;28;19911;-75
2022/09/06 06:57:03;;;;;;;;;;;19.30;99.90;;;;;;5094313;28;19948;-75
2022/09/06 06:59:29;;;;;;;;;;;19.30;99.90;;;;;;5093662;28;19943;-75
2022/09/06 07:01:54;;;;;;;;;;;19.40;99.90;;;;;;5093456;28;19908;-76
2022/09/06 07:04:20;;;;;;;;;;;19.40;99.90;;;;;;5075335;28;19922;-75
2022/09/06 07:06:47;;;;;;;;;;;19.40;99.90;;;;;;5093452;28;19954;-76
2022/09/06 07:09:13;;;;;;;;;;;19.40;99.90;;;;;;5093324;28;19912;-76
2022/09/06 07:11:38;;;;;;;;;;;19.30;99.90;;;;;;5093199;28;19915;-77
2022/09/06 07:14:04;;;;;;;;;;;19.40;99.90;;;;;;5093395;28;19908;-76
2022/09/06 07:16:30;;;;;;;;;;;19.40;99.90;;;;;;5093407;28;19953;-77
2022/09/06 07:18:55;;;;;;;;;;;19.30;99.90;;;;;;5093547;28;20258;-75
2022/09/06 07:21:26;;;;;;;;;;;19.00;99.90;;;;;;5093346;28;19908;-75
2022/09/06 07:23:55;;;;;;;;;;;18.80;99.90;;;;;;5093315;28;19915;-75
2022/09/06 07:26:22;;;;;;;;;;;18.30;99.90;;;;;;5093598;28;19995;-77
2022/09/06 07:28:50;;;;;;;;;;;17.90;99.90;;;;;;5093588;28;20011;-75
2022/09/06 07:31:16;;;;;;;;;;;17.80;99.90;;;;;;5096910;28;19977;-75
2022/09/06 07:33:42;;;;;;;;;;;17.80;99.90;;;;;;5078876;28;19955;-77
2022/09/06 07:36:07;;;;;;;;;;;17.70;99.90;;;;;;5097716;28;20380;-76
2022/09/06 07:38:34;;;;;;;;;;;17.70;99.90;;;;;;5097055;28;20287;-76
2022/09/06 07:41:00;;;;;;;;;;;17.70;99.90;;;;;;5096884;28;19909;-76
2022/09/06 07:43:26;;;;;;;;;;;17.70;99.90;;;;;;5096692;28;19999;-75
2022/09/06 07:46:09;;;;;;;;;;;17.70;99.90;;;;;;5096272;28;19948;-76
2022/09/06 07:48:35;;;;;;;;;;;17.60;99.90;;;;;;5096569;28;19966;-75
2022/09/06 07:51:01;;;;;;;;;;;17.50;99.90;;;;;;5096760;28;19908;-74
2022/09/06 07:53:27;;;;;;;;;;;17.30;99.90;;;;;;5096599;28;19908;-76
2022/09/06 07:55:53;;;;;;;;;;;17.20;99.90;;;;;;5096872;28;19957;-74
2022/09/06 07:58:18;;;;;;;;;;;17.10;99.90;;;;;;5078767;28;20358;-79
2022/09/06 08:00:44;;;;;;;;;;;17.10;99.90;;;;;;5096545;28;19914;-76
2022/09/06 08:03:09;;;;;;;;;;;17.00;99.90;;;;;;5078338;28;19908;-76
2022/09/06 08:05:35;;;;;;;;;;;16.90;99.90;;;;;;5096301;28;19915;-76
2022/09/06 08:08:01;;;;;;;;;;;16.90;99.90;;;;;;5096358;28;19915;-76
2022/09/06 08:10:26;;;;;;;;;;;16.90;99.90;;;;;;5096257;28;19915;-77
2022/09/06 08:12:53;;;;;;;;;;;16.90;99.90;;;;;;5096227;28;19940;-77
2022/09/06 08:15:19;;;;;;;;;;;16.90;99.90;;;;;;5096776;28;19908;-76
2022/09/06 08:17:48;;;;;;;;;;;16.80;99.90;;;;;;5096221;28;20387;-74
2022/09/06 08:20:13;;;;;;;;;;;16.70;99.90;;;;;;5096060;28;19908;-75
2022/09/06 08:22:39;;;;;;;;;;;16.90;99.90;;;;;;5096310;28;19908;-75
2022/09/06 08:25:05;;;;;;;;;;;17.00;99.90;;;;;;5096175;28;19969;-76
2022/09/06 08:27:30;;;;;;;;;;;17.00;99.90;;;;;;5096012;28;19998;-75
2022/09/06 08:29:56;;;;;;;;;;;17.10;99.90;;;;;;5095776;28;19966;-76
2022/09/06 08:32:22;;;;;;;;;;;17.30;99.90;;;;;;5096277;28;19912;-76
2022/09/06 08:34:47;;;;;;;;;;;17.50;99.90;;;;;;5095876;28;19908;-74
2022/09/06 08:37:13;;;;;;;;;;;17.80;99.90;;;;;;5095728;28;19969;-75
2022/09/06 08:39:39;;;;;;;;;;;18.10;99.90;;;;;;5095630;28;19915;-75
2022/09/06 08:42:05;;;;;;;;;;;18.40;99.90;;;;;;5094847;28;19915;-75
2022/09/06 08:44:34;;;;;;;;;;;19.00;99.90;;;;;;5095640;28;19923;-75
2022/09/06 08:47:02;;;;;;;;;;;19.60;99.90;;;;;;5095806;28;19915;-75
2022/09/06 08:49:30;;;;;;;;;;;19.90;99.90;;;;;;5077319;28;19916;-76
2022/09/06 08:52:06;;;;;;;;;;;20.90;99.90;;;;;;5095535;28;19916;-77
2022/09/06 08:54:37;;;;;;;;;;;21.30;99.90;;;;;;5096046;28;19931;-75
2022/09/06 08:57:11;;;;;;;;;;;21.50;99.90;;;;;;5095792;28;19908;-76
2022/09/06 08:59:38;;;;;;;;;;;21.00;99.90;;;;;;5095417;28;19915;-76
2022/09/06 09:02:09;;;;;;;;;;;21.40;99.90;;;;;;5095331;28;19969;-77
2022/09/06 09:04:35;;;;;;;;;;;21.20;99.90;;;;;;5095321;28;19995;-76
2022/09/06 09:07:21;;;;;;;;;;;21.00;99.90;;;;;;5095365;28;19907;-76
2022/09/06 09:09:47;;;;;;;;;;;21.60;99.90;;;;;;5094370;28;19912;-76
2022/09/06 09:12:14;;;;;;;;;;;23.40;99.90;;;;;;5095022;28;19915;-76
2022/09/06 09:14:42;;;;;;;;;;;22.10;99.90;;;;;;5095104;28;20287;-77
2022/09/06 09:17:26;;;;;;;;;;;21.60;99.90;;;;;;5095226;28;19939;-75
2022/09/06 09:19:52;;;;;;;;;;;21.50;99.90;;;;;;5095130;28;19909;-76
2022/09/06 09:22:22;;;;;;;;;;;21.90;99.90;;;;;;5094888;28;19919;-78
2022/09/06 09:24:50;;;;;;;;;;;23.70;99.90;;;;;;5094801;28;19946;-75
2022/09/06 09:27:18;;;;;;;;;;;22.80;99.90;;;;;;5076612;28;19908;-77
2022/09/06 09:29:50;;;;;;;;;;;22.00;99.90;;;;;;5094814;28;19948;-77
2022/09/06 09:32:27;;;;;;;;;;;21.30;99.90;;;;;;5094859;28;19957;-76
2022/09/06 09:34:53;;;;;;;;;;;20.90;99.90;;;;;;5094777;28;20288;-75
2022/09/06 09:37:20;;;;;;;;;;;20.80;99.90;;;;;;5094578;28;19908;-76
2022/09/06 09:39:46;;;;;;;;;;;20.80;99.90;;;;;;5094859;28;19908;-76
2022/09/06 09:42:14;;;;;;;;;;;20.50;99.90;;;;;;5094558;28;19931;-76
2022/09/06 09:44:43;;;;;;;;;;;20.40;99.90;;;;;;5094348;28;19916;-76
2022/09/06 09:47:21;;;;;;;;;;;20.40;99.90;;;;;;5094637;28;19915;-76
2022/09/06 09:49:46;;;;;;;;;;;20.60;99.90;;;;;;5094667;28;19916;-75
2022/09/06 09:52:13;;;;;;;;;;;20.70;99.90;;;;;;5094418;28;19915;-76
2022/09/06 09:54:40;;;;;;;;;;;20.80;99.90;;;;;;5094112;28;20372;-75
2022/09/06 09:57:08;;;;;;;;;;;20.80;99.90;;;;;;5094932;28;19908;-75
2022/09/06 09:59:40;;;;;;;;;;;20.80;99.90;;;;;;5094188;28;19930;-75
2022/09/06 10:02:24;;;;;;;;;;;20.70;99.90;;;;;;5094504;28;19954;-75
2022/09/06 10:05:00;;;;;;;;;;;20.50;99.90;;;;;;5094254;28;20363;-76
2022/09/06 10:07:26;;;;;;;;;;;20.60;99.90;;;;;;5094176;28;19916;-75
2022/09/06 10:10:06;;;;;;;;;;;20.80;99.90;;;;;;5094025;28;19916;-75
2022/09/06 10:12:32;;;;;;;;;;;20.80;99.90;;;;;;5094239;28;19915;-76
2022/09/06 10:14:58;;;;;;;;;;;20.80;99.90;;;;;;5094079;28;19912;-76
2022/09/06 10:17:34;;;;;;;;;;;20.60;99.90;;;;;;5093980;28;19920;-74
2022/09/06 10:20:10;;;;;;;;;;;20.70;99.90;;;;;;5093928;28;19909;-76
2022/09/06 10:22:42;;;;;;;;;;;21.20;99.90;;;;;;5093893;28;19909;-75
2022/09/06 10:25:20;;;;;;;;;;;21.50;99.90;;;;;;5094079;28;19908;-77
2022/09/06 10:27:55;;;;;;;;;;;21.40;99.90;;;;;;5093999;28;19995;-75
2022/09/06 10:30:21;;;;;;;;;;;21.70;99.90;;;;;;5093802;28;19912;-77
2022/09/06 10:32:49;;;;;;;;;;;22.40;99.90;;;;;;5093786;28;20011;-75
2022/09/06 10:35:17;;;;;;;;;;;21.90;99.90;;;;;;5094010;28;19957;-76
2022/09/06 10:37:43;;;;;;;;;;;22.50;99.90;;;;;;5093895;28;19934;-76
2022/09/06 10:40:18;;;;;;;;;;;24.20;99.90;;;;;;5093671;28;19909;-78
2022/09/06 10:42:54;;;;;;;;;;;26.80;99.90;;;;;;5093983;28;19943;-76
2022/09/06 10:45:34;;;;;;;;;;;28.00;99.90;;;;;;5074876;28;20015;-75
2022/09/06 10:48:03;;;;;;;;;;;28.40;99.90;;;;;;5099236;28;20356;-76
2022/09/06 10:50:31;;;;;;;;;;;27.80;99.90;;;;;;5102043;28;19908;-75
2022/09/06 10:53:01;;;;;;;;;;;29.70;99.90;;;;;;5102986;28;19971;-76
2022/09/06 10:55:29;;;;;;;;;;;30.40;94.00;;;;;;5104008;28;20333;-78
2022/09/06 10:58:00;;;;;;;;;;;32.30;91.30;;;;;;5103519;28;20285;-77
2022/09/06 11:00:26;;;;;;;;;;;31.50;86.50;;;;;;5101995;28;19908;-79
2022/09/06 11:03:02;;;;;;;;;;;34.80;84.10;;;;;;5103626;28;20330;-78
2022/09/06 11:05:34;;;;;;;;;;;35.50;80.00;;;;;;5105608;28;20573;-78
2022/09/06 11:08:00;;;;;;;;;;;33.80;75.20;;;;;;5107532;28;19916;-76
2022/09/06 11:10:29;;;;;;;;;;;31.90;75.90;;;;;;5105742;28;19908;-77
2022/09/06 11:12:58;;;;;;;;;;;33.00;77.30;;;;;;5107418;28;19907;-77
2022/09/06 11:15:24;;;;;;;;;;;32.60;72.70;;;;;;5107797;28;19915;-78
2022/09/06 11:17:51;;;;;;;;;;;32.40;71.90;;;;;;5105984;28;20299;-76
2022/09/06 11:20:19;;;;;;;;;;;33.40;72.30;;;;;;5106726;28;19907;-77
2022/09/06 11:22:57;;;;;;;;;;;34.30;71.80;;;;;;5107640;28;19961;-77
2022/09/06 11:25:26;;;;;;;;;;;30.80;72.20;;;;;;5107513;28;19912;-78
2022/09/06 11:27:53;;;;;;;;;;;29.40;77.60;;;;;;5106164;28;19957;-76
2022/09/06 11:30:19;;;;;;;;;;;31.10;76.50;;;;;;5106112;28;19947;-78
2022/09/06 11:32:49;;;;;;;;;;;30.80;76.40;;;;;;5089164;28;19908;-76
2022/09/06 11:35:26;;;;;;;;;;;29.30;77.70;;;;;;5106327;28;19990;-77
2022/09/06 11:37:57;;;;;;;;;;;32.00;75.10;;;;;;5105836;28;19914;-77
2022/09/06 11:40:25;;;;;;;;;;;32.80;71.50;;;;;;5117239;28;19961;-75
2022/09/06 11:42:50;;;;;;;;;;;32.70;72.60;;;;;;5117359;28;20366;-79
2022/09/06 11:45:20;;;;;;;;;;;33.70;71.30;;;;;;5116643;28;19922;-78
2022/09/06 11:47:48;;;;;;;;;;;37.90;67.80;;;;;;5117134;28;20443;-79
2022/09/06 11:50:20;;;;;;;;;;;35.70;62.40;;;;;;5098688;28;19923;-76
2022/09/06 11:53:04;;;;;;;;;;;34.60;65.60;;;;;;5117044;28;20003;-79
2022/09/06 11:55:37;;;;;;;;;;;34.40;64.40;;;;;;5117150;28;19908;-75
2022/09/06 11:58:15;;;;;;;;;;;31.90;68.60;;;;;;5117552;28;19908;-76
2022/09/06 12:00:41;;;;;;;;;;;30.60;70.90;;;;;;5116856;28;19908;-78
2022/09/06 12:03:08;;;;;;;;;;;28.00;74.20;;;;;;5116897;28;19911;-77
2022/09/06 12:05:53;;;;;;;;;;;26.30;81.80;;;;;;5116775;28;20398;-78
2022/09/06 12:08:29;;;;;;;;;;;25.40;90.00;;;;;;5116375;28;20010;-78
2022/09/06 12:10:56;;;;;;;;;;;24.80;92.00;;;;;;5116845;28;19915;-76
2022/09/06 12:13:33;;;;;;;;;;;24.10;98.10;;;;;;5116620;28;19908;-76
2022/09/06 12:15:59;;;;;;;;;;;23.00;99.90;;;;;;5116542;28;19915;-76
2022/09/06 12:18:54;;;;;;;;;;;22.20;99.90;;;;;;5116528;28;20279;-78
2022/09/06 12:21:37;;;;;;;;;;;21.50;99.90;;;;;;5094441;28;19921;-77
2022/09/06 12:24:03;;;;;;;;;;;;;;;;;;5116405;28;19914;-76
2022/09/06 12:26:48;;;;;;;;;;;20.30;99.90;;;;;;5116530;28;19911;-76
2022/09/06 12:29:14;;;;;;;;;;;19.60;99.90;;;;;;5116290;28;19912;-76
2022/09/06 12:31:42;;;;;;;;;;;19.50;99.90;;;;;;5116270;28;19960;-75
2022/09/06 12:34:10;;;;;;;;;;;19.10;99.90;;;;;;5097962;28;19931;-77
2022/09/06 12:36:45;;;;;;;;;;;18.70;99.90;;;;;;5116198;28;19908;-76
2022/09/06 12:39:11;;;;;;;;;;;18.40;99.90;;;;;;5116177;28;20359;-78
2022/09/06 12:41:42;;;;;;;;;;;18.00;99.90;;;;;;5116188;28;19908;-76
2022/09/06 12:44:07;;;;;;;;;;;17.80;99.90;;;;;;5115719;28;19908;-76
2022/09/06 12:46:33;;;;;;;;;;;17.90;99.90;;;;;;5116089;28;19912;-75
2022/09/06 12:49:10;;;;;;;;;;;18.00;99.90;;;;;;5115866;28;20303;-75
2022/09/06 12:51:36;;;;;;;;;;;18.10;99.90;;;;;;5115979;28;20367;-76
2022/09/06 12:54:15;;;;;;;;;;;18.40;99.90;;;;;;5116138;28;20437;-75
2022/09/06 12:56:41;;;;;;;;;;;18.80;99.90;;;;;;5115842;28;19915;-75
2022/09/06 12:59:23;;;;;;;;;;;19.10;99.90;;;;;;5116283;28;19908;-74
2022/09/06 13:01:49;;;;;;;;;;;19.30;99.90;;;;;;5115674;28;20333;-74
2022/09/06 13:04:41;;;;;;;;;;;19.80;99.90;;;;;;5115788;28;19999;-74
2022/09/06 13:07:14;;;;;;;;;;;20.20;99.90;;;;;;5110499;28;19915;-76
2022/09/06 13:09:41;;;;;;;;;;;20.30;99.90;;;;;;5115419;28;19911;-75
2022/09/06 13:12:12;;;;;;;;;;;20.80;99.90;;;;;;5115468;28;20000;-75
2022/09/06 13:14:38;;;;;;;;;;;21.00;99.90;;;;;;5115633;28;19912;-75
2022/09/06 13:17:04;;;;;;;;;;;21.40;99.90;;;;;;5115649;28;19914;-74
2022/09/06 13:19:31;;;;;;;;;;;21.40;99.90;;;;;;5115358;28;19943;-74
2022/09/06 13:21:58;;;;;;;;;;;21.50;99.90;;;;;;5115778;28;19907;-74
2022/09/06 13:24:25;;;;;;;;;;;21.50;99.90;;;;;;5115368;28;20003;-74
2022/09/06 13:26:51;;;;;;;;;;;21.70;99.90;;;;;;5115280;28;19911;-74
2022/09/06 13:29:17;;;;;;;;;;;21.60;99.90;;;;;;5096272;28;20367;-75
2022/09/06 13:31:46;;;;;;;;;;;21.80;99.90;;;;;;5115327;28;19954;-75
2022/09/06 13:34:22;;;;;;;;;;;22.30;99.90;;;;;;5115468;28;19955;-74
2022/09/06 13:36:50;;;;;;;;;;;21.80;99.90;;;;;;5115178;28;19912;-74
2022/09/06 13:39:32;;;;;;;;;;;21.60;99.90;;;;;;5114926;28;19908;-73
2022/09/06 13:42:06;;;;;;;;;;;21.40;99.90;;;;;;5115082;28;19908;-75
2022/09/06 13:44:33;;;;;;;;;;;21.70;99.90;;;;;;5114704;28;19918;-73
2022/09/06 13:46:59;;;;;;;;;;;21.70;99.90;;;;;;5114936;28;20432;-76
2022/09/06 13:49:25;;;;;;;;;;;21.60;99.90;;;;;;5114695;28;19916;-74
2022/09/06 13:51:51;;;;;;;;;;;21.80;99.90;;;;;;5114723;28;19965;-75
2022/09/06 13:54:17;;;;;;;;;;;21.80;99.90;;;;;;5114686;28;19911;-74
2022/09/06 13:56:43;;;;;;;;;;;21.60;99.90;;;;;;5114810;28;19914;-74
2022/09/06 13:59:09;;;;;;;;;;;21.60;99.90;;;;;;5115135;28;19919;-74
2022/09/06 14:01:36;;;;;;;;;;;21.50;99.90;;;;;;5114628;28;19908;-75
2022/09/06 14:04:02;;;;;;;;;;;21.30;99.90;;;;;;5114621;28;19915;-74
2022/09/06 14:06:28;;;;;;;;;;;21.20;99.90;;;;;;5114581;28;19908;-75
2022/09/06 14:08:53;;;;;;;;;;;21.30;99.90;;;;;;5096096;28;20010;-75
2022/09/06 14:11:19;;;;;;;;;;;21.00;99.90;;;;;;5114419;28;19912;-74
2022/09/06 14:13:44;;;;;;;;;;;20.90;99.90;;;;;;5114585;28;19908;-76
2022/09/06 14:16:10;;;;;;;;;;;20.70;99.90;;;;;;5114361;28;20426;-74
2022/09/06 14:18:36;;;;;;;;;;;20.60;99.90;;;;;;5114350;28;19916;-76
2022/09/06 14:21:02;;;;;;;;;;;20.70;99.90;;;;;;5114366;28;19914;-74
2022/09/06 14:23:27;;;;;;;;;;;20.80;99.90;;;;;;5114449;28;19908;-75
2022/09/06 14:25:56;;;;;;;;;;;20.80;99.90;;;;;;5096001;28;19908;-76